sensor_id;sensor_type;location;lat;lon;timestamp;P1;durP1;ratioP1;P2;durP2;ratioP2
30896;SDS011;64229;52.246;21.054;2023-07-30T21:41:59;4.90;;;2.85;;
30896;SDS011;64229;52.246;21.054;2023-07-30T21:44:25;6.18;;;2.67;;
30896;SDS011;64229;52.246;21.054;2023-07-30T21:46:50;3.13;;;2.50;;
30896;SDS011;64229;52.246;21.054;2023-07-30T21:49:16;3.90;;;2.58;;
30896;SDS011;64229;52.246;21.054;2023-07-30T21:51:42;5.43;;;2.90;;
30896;SDS011;64229;52.246;21.054;2023-07-30T21:54:07;5.63;;;2.97;;
30896;SDS011;64229;52.246;21.054;2023-07-30T21:56:32;3.70;;;2.50;;
30896;SDS011;64229;52.246;21.054;2023-07-30T21:58:58;4.33;;;2.70;;
30896;SDS011;64229;52.246;21.054;2023-07-30T22:01:23;4.50;;;2.90;;
30896;SDS011;64229;52.246;21.054;2023-07-30T22:03:48;3.45;;;2.47;;
30896;SDS011;64229;52.246;21.054;2023-07-30T22:06:13;6.13;;;2.77;;
30896;SDS011;64229;52.246;21.054;2023-07-30T22:08:39;4.80;;;2.57;;
30896;SDS011;64229;52.246;21.054;2023-07-30T22:11:04;3.67;;;2.90;;
30896;SDS011;64229;52.246;21.054;2023-07-30T22:13:29;7.07;;;2.42;;
30896;SDS011;64229;52.246;21.054;2023-07-30T22:15:54;5.38;;;2.67;;
30896;SDS011;64229;52.246;21.054;2023-07-30T22:18:20;4.10;;;2.63;;
30896;SDS011;64229;52.246;21.054;2023-07-30T22:20:45;3.70;;;2.40;;
30896;SDS011;64229;52.246;21.054;2023-07-30T22:23:10;3.78;;;2.40;;
30896;SDS011;64229;52.246;21.054;2023-07-30T22:25:36;4.57;;;2.70;;
30896;SDS011;64229;52.246;21.054;2023-07-30T22:28:01;5.37;;;2.50;;
30896;SDS011;64229;52.246;21.054;2023-07-30T22:30:27;5.53;;;2.90;;
30896;SDS011;64229;52.246;21.054;2023-07-30T22:32:53;4.50;;;2.97;;
30896;SDS011;64229;52.246;21.054;2023-07-30T22:35:18;4.10;;;2.47;;
30896;SDS011;64229;52.246;21.054;2023-07-30T22:37:43;5.10;;;2.40;;
30896;SDS011;64229;52.246;21.054;2023-07-30T22:40:08;3.40;;;2.28;;
30896;SDS011;64229;52.246;21.054;2023-07-30T22:42:34;3.70;;;2.40;;
30896;SDS011;64229;52.246;21.054;2023-07-30T22:45:01;3.33;;;1.95;;
30896;SDS011;64229;52.246;21.054;2023-07-30T22:47:27;4.50;;;2.55;;
30896;SDS011;64229;52.246;21.054;2023-07-30T22:49:52;3.75;;;2.67;;
30896;SDS011;64229;52.246;21.054;2023-07-30T22:52:18;4.13;;;2.72;;
30896;SDS011;64229;52.246;21.054;2023-07-30T22:54:43;3.58;;;2.42;;
30896;SDS011;64229;52.246;21.054;2023-07-30T22:57:08;3.37;;;2.40;;
30896;SDS011;64229;52.246;21.054;2023-07-30T22:59:34;3.28;;;2.08;;
30896;SDS011;64229;52.246;21.054;2023-07-30T23:01:59;4.13;;;2.05;;
30896;SDS011;64229;52.246;21.054;2023-07-30T23:04:24;3.33;;;2.17;;
30896;SDS011;64229;52.246;21.054;2023-07-30T23:06:50;3.30;;;2.30;;
30896;SDS011;64229;52.246;21.054;2023-07-30T23:09:16;4.07;;;2.40;;
30896;SDS011;64229;52.246;21.054;2023-07-30T23:11:41;2.60;;;1.90;;
30896;SDS011;64229;52.246;21.054;2023-07-30T23:14:07;2.83;;;2.30;;
30896;SDS011;64229;52.246;21.054;2023-07-30T23:16:33;3.58;;;2.05;;
30896;SDS011;64229;52.246;21.054;2023-07-30T23:18:59;3.40;;;2.25;;
30896;SDS011;64229;52.246;21.054;2023-07-30T23:21:24;2.73;;;1.90;;
30896;SDS011;64229;52.246;21.054;2023-07-30T23:23:50;3.25;;;2.20;;
30896;SDS011;64229;52.246;21.054;2023-07-30T23:26:15;2.90;;;2.00;;
30896;SDS011;64229;52.246;21.054;2023-07-30T23:28:40;2.83;;;1.83;;
30896;SDS011;64229;52.246;21.054;2023-07-30T23:31:06;2.50;;;1.70;;
30896;SDS011;64229;52.246;21.054;2023-07-30T23:33:31;3.10;;;1.65;;
30896;SDS011;64229;52.246;21.054;2023-07-30T23:35:57;3.03;;;1.60;;
30896;SDS011;64229;52.246;21.054;2023-07-30T23:38:22;3.95;;;1.80;;
30896;SDS011;64229;52.246;21.054;2023-07-30T23:40:48;2.07;;;1.70;;
30896;SDS011;64229;52.246;21.054;2023-07-30T23:43:13;2.60;;;1.60;;
30896;SDS011;64229;52.246;21.054;2023-07-30T23:45:38;2.37;;;1.40;;
30896;SDS011;64229;52.246;21.054;2023-07-30T23:48:04;2.63;;;1.60;;
30896;SDS011;64229;52.246;21.054;2023-07-30T23:50:29;3.50;;;2.30;;
30896;SDS011;64229;52.246;21.054;2023-07-30T23:52:55;3.45;;;2.22;;
30896;SDS011;64229;52.246;21.054;2023-07-30T23:55:20;2.50;;;1.35;;
30896;SDS011;64229;52.246;21.054;2023-07-30T23:57:45;2.80;;;1.45;;
